Detroit, Michigan
Traffic Map
Current Weather Conditions
Detroit, Michigan
Broken Clouds
Broken Clouds
70°
Feels Like: 70°
Wind Chill: 70° Ceiling: 3500
Heat Index: 70° Visibility: 12mi
Dew Point: 64° Wind: 12mph
Humidity: 83% Direction: 30° (NNE)
Pressure: 29.99in Gusts: 0mph
Raw Report DataCYQG 242121Z 03010KT 12SM FEW012 BKN035 21/18 A2999 RMK NS2CU4 PRESRR SLP154 DENSITY ALT 1500FT
Traffic Incident Summary
Active as of:
Severity:
Category:
InformationThere was an issue retrieving the traffic information for this location. Please try a different location or try again shortly.
Advertisements